Time;durP1;ratioP1;P1;durP2;ratioP2;P2;SDS_P1;SDS_P2;PMS_P1;PMS_P2;Temp;Humidity;BMP_temperature;BMP_pressure;BME280_temperature;BME280_humidity;BME280_pressure;Samples;Min_cycle;Max_cycle;Signal;HPM_P1;HPM_P2
2021/08/07 00:00:51;;;;;;;1.63;1.20;;;20.80;99.90;;;;;;4995723;28;20197;-86
2021/08/07 00:03:18;;;;;;;1.20;1.10;;;20.80;99.90;;;;;;4995227;28;20214;-88
2021/08/07 00:05:45;;;;;;;1.95;1.50;;;20.80;99.90;;;;;;4995361;28;20507;-86
2021/08/07 00:08:12;;;;;;;1.25;1.15;;;20.80;99.90;;;;;;4994837;28;20221;-83
2021/08/07 00:10:40;;;;;;;1.10;1.00;;;20.80;99.90;;;;;;4995021;28;20526;-82
2021/08/07 00:13:06;;;;;;;1.50;1.20;;;20.80;99.90;;;;;;4995374;28;20565;-84
2021/08/07 00:15:33;;;;;;;1.40;1.30;;;20.80;99.90;;;;;;4994238;28;20271;-85
2021/08/07 00:18:00;;;;;;;1.17;1.00;;;20.70;99.90;;;;;;4995066;28;20210;-86
2021/08/07 00:20:27;;;;;;;1.33;1.17;;;20.70;99.90;;;;;;4991957;28;20293;-85
2021/08/07 00:22:53;;;;;;;2.25;1.20;;;20.70;99.90;;;;;;4994695;28;20240;-86
2021/08/07 00:25:20;;;;;;;1.40;1.10;;;20.70;99.90;;;;;;4994645;28;20209;-86
2021/08/07 00:27:48;;;;;;;1.38;1.23;;;20.70;99.90;;;;;;4994539;28;20311;-86
2021/08/07 00:30:15;;;;;;;1.35;1.20;;;20.70;99.90;;;;;;4995064;28;20197;-85
2021/08/07 00:32:42;;;;;;;1.42;1.10;;;20.70;99.90;;;;;;4994365;28;20194;-86
2021/08/07 00:35:10;;;;;;;1.40;1.20;;;20.70;99.90;;;;;;4993690;28;20197;-85
2021/08/07 00:37:36;;;;;;;1.50;1.23;;;20.70;99.90;;;;;;4994227;28;20651;-85
2021/08/07 00:40:05;;;;;;;1.20;1.10;;;20.70;99.90;;;;;;4996396;28;20648;-86
2021/08/07 00:42:31;;;;;;;1.10;0.93;;;20.70;99.90;;;;;;4994544;28;20213;-85
2021/08/07 00:45:00;;;;;;;1.33;1.23;;;20.70;99.90;;;;;;4993840;28;20206;-85
2021/08/07 00:47:26;;;;;;;1.50;1.17;;;20.60;99.90;;;;;;4994559;28;20198;-85
2021/08/07 00:49:53;;;;;;;1.17;0.98;;;20.60;99.90;;;;;;4994153;28;20530;-86
2021/08/07 00:52:20;;;;;;;1.38;1.10;;;20.60;99.90;;;;;;4993142;28;20197;-85
2021/08/07 00:54:46;;;;;;;1.27;1.10;;;20.60;99.90;;;;;;4992787;28;20224;-85
2021/08/07 00:57:13;;;;;;;1.70;1.10;;;20.60;99.90;;;;;;4993729;28;20208;-86
2021/08/07 00:59:40;;;;;;;1.25;1.15;;;20.60;99.90;;;;;;4994274;28;20201;-85
2021/08/07 01:02:13;;;;;;;1.30;1.20;;;20.40;99.90;;;;;;4993377;28;20221;-84
2021/08/07 01:04:45;;;;;;;1.10;1.00;;;20.60;99.90;;;;;;4994256;28;20572;-85
2021/08/07 01:07:21;;;;;;;1.40;1.13;;;20.60;99.90;;;;;;4993817;28;20610;-85
2021/08/07 01:09:54;;;;;;;1.30;1.20;;;20.60;99.90;;;;;;4983855;28;20197;-85
2021/08/07 01:12:27;;;;;;;1.67;1.10;;;20.60;99.90;;;;;;4994143;28;20264;-85
2021/08/07 01:14:56;;;;;;;1.33;1.05;;;20.60;99.90;;;;;;4993290;28;20376;-85
2021/08/07 01:17:26;;;;;;;2.15;1.20;;;20.50;99.90;;;;;;4993658;28;20202;-86
2021/08/07 01:19:58;;;;;;;1.50;1.10;;;20.50;99.90;;;;;;4992817;28;20201;-84
2021/08/07 01:22:33;;;;;;;2.30;1.10;;;20.50;99.90;;;;;;4992911;28;20210;-85
2021/08/07 01:25:05;;;;;;;1.33;1.20;;;20.50;99.90;;;;;;4993396;28;20280;-84
2021/08/07 01:27:37;;;;;;;1.38;1.10;;;20.50;99.90;;;;;;4993307;28;20236;-85
2021/08/07 01:30:05;;;;;;;1.65;1.10;;;20.50;99.90;;;;;;4993465;28;20190;-84
2021/08/07 01:32:34;;;;;;;1.30;1.20;;;20.50;99.90;;;;;;4993610;28;20209;-86
2021/08/07 01:35:02;;;;;;;1.10;0.90;;;20.50;99.90;;;;;;4993102;28;20205;-86
2021/08/07 01:37:29;;;;;;;1.70;1.38;;;20.50;99.90;;;;;;4993130;28;20202;-89
2021/08/07 01:39:57;;;;;;;2.17;1.30;;;20.50;99.90;;;;;;4992765;28;20546;-86
2021/08/07 01:42:25;;;;;;;1.10;1.00;;;20.40;99.90;;;;;;4993235;28;20583;-88
2021/08/07 01:44:53;;;;;;;1.33;1.23;;;20.30;99.90;;;;;;4992334;28;20677;-88
2021/08/07 01:47:24;;;;;;;1.20;1.10;;;20.40;99.90;;;;;;4983941;28;20202;-89
2021/08/07 01:49:57;;;;;;;1.17;1.00;;;20.40;99.90;;;;;;4993052;28;20389;-88
2021/08/07 01:52:27;;;;;;;1.13;1.02;;;20.40;99.90;;;;;;4992717;28;20194;-89
2021/08/07 01:55:00;;;;;;;2.17;1.20;;;20.40;99.90;;;;;;4992769;28;20325;-88
2021/08/07 01:57:30;;;;;;;1.48;1.00;;;20.40;99.90;;;;;;4990724;28;20245;-90
2021/08/07 01:59:59;;;;;;;2.00;1.00;;;20.40;99.90;;;;;;4992647;28;20618;-88
2021/08/07 02:02:28;;;;;;;1.42;1.30;;;20.40;99.90;;;;;;4992854;28;20224;-88
2021/08/07 02:04:56;;;;;;;1.20;1.10;;;20.30;99.90;;;;;;4993321;28;20621;-87
2021/08/07 02:07:22;;;;;;;1.55;1.27;;;20.30;99.90;;;;;;4992770;28;20629;-87
2021/08/07 02:09:49;;;;;;;1.30;1.20;;;20.30;99.90;;;;;;4993270;28;20238;-89
2021/08/07 02:12:16;;;;;;;1.05;0.95;;;20.30;99.90;;;;;;4992317;28;20190;-86
2021/08/07 02:14:44;;;;;;;1.30;1.20;;;20.30;99.90;;;;;;4991566;28;20216;-86
2021/08/07 02:17:13;;;;;;;1.30;1.20;;;20.30;99.90;;;;;;4991050;28;20194;-85
2021/08/07 02:19:40;;;;;;;1.27;1.05;;;20.30;99.90;;;;;;4993047;28;20194;-86
2021/08/07 02:22:08;;;;;;;1.27;1.00;;;20.30;99.90;;;;;;4992874;28;20213;-88
2021/08/07 02:24:35;;;;;;;1.42;1.10;;;20.30;99.90;;;;;;4992606;28;20204;-87
2021/08/07 02:27:03;;;;;;;1.58;1.27;;;20.30;99.90;;;;;;4992132;28;20208;-86
2021/08/07 02:29:31;;;;;;;1.60;1.50;;;20.30;99.90;;;;;;4993115;28;20212;-86
2021/08/07 02:31:58;;;;;;;1.52;1.00;;;20.20;99.90;;;;;;4992722;28;20201;-87
2021/08/07 02:34:28;;;;;;;1.60;1.20;;;20.20;99.90;;;;;;4992656;28;20255;-86
2021/08/07 02:36:56;;;;;;;1.25;1.00;;;20.20;99.90;;;;;;4992891;28;20229;-83
2021/08/07 02:39:23;;;;;;;1.30;1.20;;;20.20;99.90;;;;;;4993712;28;20260;-81
2021/08/07 02:41:50;;;;;;;1.20;1.02;;;20.20;99.90;;;;;;4991842;28;20205;-80
2021/08/07 02:44:17;;;;;;;1.30;1.20;;;20.20;99.90;;;;;;4991813;28;20255;-79
2021/08/07 02:46:44;;;;;;;1.30;1.10;;;20.20;99.90;;;;;;4991573;28;20193;-81
2021/08/07 02:49:11;;;;;;;1.17;0.80;;;20.20;99.90;;;;;;4992474;28;20198;-80
2021/08/07 02:51:40;;;;;;;1.75;1.00;;;20.10;99.90;;;;;;4992101;28;20213;-81
2021/08/07 02:54:07;;;;;;;1.52;1.25;;;20.10;99.90;;;;;;4991677;28;20755;-80
2021/08/07 02:56:35;;;;;;;1.40;1.27;;;20.20;99.90;;;;;;4992360;28;20208;-79
2021/08/07 02:59:02;;;;;;;1.60;1.30;;;20.10;99.90;;;;;;4992204;28;20263;-80
2021/08/07 03:01:29;;;;;;;1.20;0.90;;;20.10;99.90;;;;;;4992465;28;20208;-80
2021/08/07 03:03:55;;;;;;;1.13;1.00;;;20.10;99.90;;;;;;4992445;28;20225;-80
2021/08/07 03:06:23;;;;;;;1.15;1.02;;;19.90;99.90;;;;;;4991537;28;20268;-82
2021/08/07 03:08:51;;;;;;;1.58;1.40;;;20.10;99.90;;;;;;4992613;28;20722;-81
2021/08/07 03:11:18;;;;;;;1.30;1.10;;;20.10;99.90;;;;;;4991836;28;20189;-82
2021/08/07 03:13:44;;;;;;;1.45;1.08;;;20.10;99.90;;;;;;4992549;28;20193;-82
2021/08/07 03:16:11;;;;;;;1.48;1.33;;;20.10;99.90;;;;;;4991897;28;20205;-81
2021/08/07 03:18:38;;;;;;;2.70;1.42;;;20.10;99.90;;;;;;4992258;28;20237;-81
2021/08/07 03:21:05;;;;;;;1.25;1.15;;;20.10;99.90;;;;;;4989901;28;20213;-82
2021/08/07 03:23:31;;;;;;;1.15;1.00;;;20.10;99.90;;;;;;4991695;28;20569;-81
2021/08/07 03:25:59;;;;;;;1.38;1.10;;;20.10;99.90;;;;;;4992360;28;20193;-81
2021/08/07 03:28:26;;;;;;;1.23;0.95;;;20.00;99.90;;;;;;4991778;28;20194;-81
2021/08/07 03:30:53;;;;;;;1.13;0.90;;;20.00;99.90;;;;;;4995344;28;20661;-81
2021/08/07 03:33:19;;;;;;;1.55;1.40;;;20.10;99.90;;;;;;4995680;28;20197;-81
2021/08/07 03:35:46;;;;;;;2.05;1.25;;;20.00;99.90;;;;;;4994111;28;20228;-80
2021/08/07 03:38:13;;;;;;;1.83;1.42;;;20.00;99.90;;;;;;4996768;28;20221;-78
2021/08/07 03:40:39;;;;;;;1.95;1.00;;;20.00;99.90;;;;;;4995323;28;20244;-79
2021/08/07 03:43:07;;;;;;;1.10;0.93;;;20.00;99.90;;;;;;4996019;28;20245;-75
2021/08/07 03:45:34;;;;;;;2.38;1.30;;;20.00;99.90;;;;;;4995673;28;20197;-78
2021/08/07 03:48:01;;;;;;;1.35;1.02;;;20.00;99.90;;;;;;4995415;28;20251;-78
2021/08/07 03:50:28;;;;;;;1.10;1.00;;;20.00;99.90;;;;;;4995445;28;20206;-77
2021/08/07 03:52:55;;;;;;;1.58;1.00;;;20.00;99.90;;;;;;4995358;28;20287;-77
2021/08/07 03:55:22;;;;;;;1.88;1.17;;;20.00;99.90;;;;;;4995046;28;20202;-77
2021/08/07 03:57:50;;;;;;;1.27;1.10;;;20.00;99.90;;;;;;4994754;28;20210;-77
2021/08/07 04:00:18;;;;;;;1.60;1.08;;;19.90;99.90;;;;;;4992109;28;20529;-77
2021/08/07 04:02:45;;;;;;;1.15;0.90;;;19.90;99.90;;;;;;4995661;28;20229;-77
2021/08/07 04:05:12;;;;;;;1.30;1.10;;;19.90;99.90;;;;;;4995607;28;20201;-77
2021/08/07 04:07:39;;;;;;;1.38;1.20;;;19.90;99.90;;;;;;4995319;28;20193;-77
2021/08/07 04:10:07;;;;;;;1.40;1.00;;;19.90;99.90;;;;;;4994904;28;20649;-76
2021/08/07 04:12:33;;;;;;;1.55;1.35;;;19.90;99.90;;;;;;4995243;28;20186;-76
2021/08/07 04:15:00;;;;;;;2.08;1.33;;;19.90;99.90;;;;;;4994961;28;20193;-77
2021/08/07 04:17:28;;;;;;;1.15;1.05;;;19.80;99.90;;;;;;4994778;28;20193;-77
2021/08/07 04:19:55;;;;;;;1.42;1.00;;;19.90;99.90;;;;;;4992181;28;20894;-78
2021/08/07 04:22:21;;;;;;;1.73;1.30;;;19.80;99.90;;;;;;4995168;28;20197;-78
2021/08/07 04:24:48;;;;;;;1.40;1.10;;;19.90;99.90;;;;;;4994823;28;20201;-79
2021/08/07 04:27:15;;;;;;;1.33;1.10;;;19.80;99.90;;;;;;4994532;28;20206;-78
2021/08/07 04:29:41;;;;;;;2.35;1.17;;;19.80;99.90;;;;;;4993043;28;20209;-78
2021/08/07 04:32:08;;;;;;;1.60;1.10;;;19.80;99.90;;;;;;4994348;28;20201;-78
2021/08/07 04:34:36;;;;;;;1.90;1.15;;;19.80;99.90;;;;;;4994655;28;20671;-78
2021/08/07 04:37:03;;;;;;;1.20;1.10;;;19.80;99.90;;;;;;4994709;28;20226;-78
2021/08/07 04:39:30;;;;;;;3.65;1.52;;;19.80;99.90;;;;;;4994587;28;20202;-78
2021/08/07 04:41:56;;;;;;;2.25;1.55;;;19.80;99.90;;;;;;4993687;28;20197;-78
2021/08/07 04:44:23;;;;;;;1.40;1.10;;;19.80;99.90;;;;;;4994421;28;20719;-78
2021/08/07 04:46:50;;;;;;;1.20;1.10;;;19.80;99.90;;;;;;4993803;28;20206;-78
2021/08/07 04:49:16;;;;;;;1.92;1.10;;;19.80;99.90;;;;;;4994508;28;20201;-77
2021/08/07 04:51:44;;;;;;;1.92;1.05;;;19.70;99.90;;;;;;4993911;28;20209;-77
2021/08/07 04:54:11;;;;;;;1.38;1.27;;;19.80;99.90;;;;;;4993562;28;20234;-78
2021/08/07 04:56:38;;;;;;;1.33;1.23;;;19.70;99.90;;;;;;4994595;28;20240;-78
2021/08/07 04:59:05;;;;;;;2.05;1.27;;;19.70;99.90;;;;;;4994302;28;20200;-79
2021/08/07 05:01:32;;;;;;;1.70;1.05;;;19.60;99.90;;;;;;4993901;28;20201;-77
2021/08/07 05:03:58;;;;;;;1.10;1.00;;;19.70;99.90;;;;;;4994025;28;20213;-77
2021/08/07 05:06:25;;;;;;;1.00;0.90;;;19.70;99.90;;;;;;4994005;28;20202;-78
2021/08/07 05:08:53;;;;;;;2.03;1.05;;;19.60;99.90;;;;;;4993697;28;20205;-77
2021/08/07 05:11:20;;;;;;;1.98;1.00;;;19.70;99.90;;;;;;4994102;28;20205;-77
2021/08/07 05:13:47;;;;;;;1.33;1.05;;;19.60;99.90;;;;;;4993627;28;20231;-77
2021/08/07 05:16:13;;;;;;;1.20;1.00;;;19.60;99.90;;;;;;4993968;28;20193;-77
2021/08/07 05:18:40;;;;;;;1.38;1.27;;;19.70;99.90;;;;;;4993125;28;20621;-77
2021/08/07 05:21:06;;;;;;;1.73;1.40;;;19.70;99.90;;;;;;4993629;28;20644;-77
2021/08/07 05:23:33;;;;;;;1.20;1.10;;;19.60;99.90;;;;;;4993944;28;20596;-77
2021/08/07 05:26:01;;;;;;;2.15;1.15;;;19.60;99.90;;;;;;4994121;28;20193;-78
2021/08/07 05:28:28;;;;;;;1.30;1.10;;;19.60;99.90;;;;;;4992842;28;20275;-77
2021/08/07 05:30:54;;;;;;;1.33;1.10;;;19.70;99.90;;;;;;4993786;28;20193;-78
2021/08/07 05:33:21;;;;;;;1.38;1.13;;;19.60;99.90;;;;;;4993702;28;20205;-77
2021/08/07 05:35:48;;;;;;;2.85;1.33;;;19.70;99.90;;;;;;4993515;28;20622;-77
2021/08/07 05:38:16;;;;;;;1.20;1.10;;;19.70;99.90;;;;;;4994583;28;20197;-77
2021/08/07 05:40:43;;;;;;;1.40;0.90;;;19.70;99.90;;;;;;4990799;28;20197;-79
2021/08/07 05:43:11;;;;;;;1.58;1.08;;;19.70;99.90;;;;;;4993457;28;20213;-78
2021/08/07 05:45:37;;;;;;;1.10;1.00;;;19.70;99.90;;;;;;4993179;28;20511;-79
2021/08/07 05:48:05;;;;;;;2.28;1.20;;;19.70;99.90;;;;;;4993229;28;20208;-78
2021/08/07 05:50:34;;;;;;;1.50;1.00;;;19.70;99.90;;;;;;4993897;28;20205;-79
2021/08/07 05:53:00;;;;;;;1.33;1.00;;;19.80;99.90;;;;;;4992098;28;20217;-77
2021/08/07 05:55:27;;;;;;;1.10;1.00;;;19.80;99.90;;;;;;4992623;28;20201;-78
2021/08/07 05:57:54;;;;;;;1.50;1.20;;;19.80;99.90;;;;;;4993772;28;20209;-78
2021/08/07 06:00:22;;;;;;;4.05;1.40;;;19.80;99.90;;;;;;4992906;28;20652;-77
2021/08/07 06:02:48;;;;;;;1.20;0.90;;;19.80;99.90;;;;;;4993400;28;20204;-77
2021/08/07 06:05:15;;;;;;;2.45;1.00;;;19.80;99.90;;;;;;4992482;28;20307;-77
2021/08/07 06:07:41;;;;;;;1.30;1.08;;;19.80;99.90;;;;;;4992214;28;20539;-77
2021/08/07 06:10:09;;;;;;;1.10;1.00;;;19.80;99.90;;;;;;4992772;28;20205;-78
2021/08/07 06:12:36;;;;;;;1.10;1.00;;;19.80;99.90;;;;;;4993307;28;20545;-77
2021/08/07 06:15:03;;;;;;;1.75;1.08;;;19.90;99.90;;;;;;4992483;28;20193;-77
2021/08/07 06:17:31;;;;;;;1.80;1.05;;;19.90;99.90;;;;;;4993203;28;20255;-78
2021/08/07 06:19:58;;;;;;;2.95;0.90;;;19.90;99.90;;;;;;4990572;28;20201;-77
2021/08/07 06:22:24;;;;;;;1.13;1.00;;;19.90;99.90;;;;;;4992345;28;20217;-77
2021/08/07 06:24:51;;;;;;;1.10;0.90;;;19.80;99.90;;;;;;4985103;28;20232;-76
2021/08/07 06:27:18;;;;;;;1.17;0.93;;;19.80;99.90;;;;;;4992741;28;20201;-77
2021/08/07 06:29:44;;;;;;;1.65;1.30;;;19.90;99.90;;;;;;4992692;28;20205;-76
2021/08/07 06:32:11;;;;;;;1.40;0.90;;;19.80;99.90;;;;;;4992474;28;20656;-76
2021/08/07 06:34:39;;;;;;;1.20;1.02;;;19.90;99.90;;;;;;4992411;28;20198;-77
2021/08/07 06:37:06;;;;;;;2.35;1.40;;;19.90;99.90;;;;;;4992892;28;20515;-76
2021/08/07 06:39:32;;;;;;;1.88;1.00;;;19.90;99.90;;;;;;4996968;28;20629;-76
2021/08/07 06:41:59;;;;;;;1.10;0.93;;;20.00;99.90;;;;;;4992084;28;20205;-77
2021/08/07 06:44:25;;;;;;;1.55;1.10;;;19.90;99.90;;;;;;4992457;28;20225;-77
2021/08/07 06:46:52;;;;;;;1.85;1.00;;;20.00;99.90;;;;;;4992727;28;20189;-76
2021/08/07 06:49:19;;;;;;;1.05;0.90;;;19.90;99.90;;;;;;4992008;28;20272;-76
2021/08/07 06:51:47;;;;;;;1.27;0.80;;;20.00;99.90;;;;;;4992686;28;20204;-78
2021/08/07 06:54:13;;;;;;;1.17;1.08;;;19.90;99.90;;;;;;4991727;28;20217;-77
2021/08/07 06:56:40;;;;;;;1.13;0.90;;;20.00;99.90;;;;;;4992738;28;20197;-79
2021/08/07 06:59:07;;;;;;;1.13;0.90;;;20.00;99.90;;;;;;4990638;28;20198;-80
2021/08/07 07:01:33;;;;;;;1.25;1.00;;;20.00;99.90;;;;;;4991680;28;20250;-79
2021/08/07 07:04:00;;;;;;;1.15;0.82;;;20.00;99.90;;;;;;4993507;28;20267;-79
2021/08/07 07:06:27;;;;;;;1.45;1.00;;;20.00;99.90;;;;;;4995897;28;20205;-79
2021/08/07 07:08:55;;;;;;;2.05;1.00;;;20.00;99.90;;;;;;4995853;28;20201;-79
2021/08/07 07:11:21;;;;;;;1.15;0.90;;;20.00;99.90;;;;;;4993527;28;20205;-79
2021/08/07 07:13:48;;;;;;;1.88;1.25;;;20.00;99.90;;;;;;4996160;28;20194;-79
2021/08/07 07:16:15;;;;;;;1.30;1.10;;;20.00;99.90;;;;;;4989740;28;20204;-78
2021/08/07 07:18:41;;;;;;;1.27;1.00;;;20.00;99.90;;;;;;4995047;28;20198;-78
2021/08/07 07:21:09;;;;;;;2.55;1.00;;;20.00;99.90;;;;;;4996187;28;20228;-78
2021/08/07 07:23:36;;;;;;;1.02;0.90;;;20.10;99.90;;;;;;4995832;28;20201;-78
2021/08/07 07:26:04;;;;;;;1.08;0.93;;;20.10;99.90;;;;;;4995139;28;20201;-78
2021/08/07 07:28:31;;;;;;;1.00;0.85;;;20.20;99.90;;;;;;4995059;28;20194;-79
2021/08/07 07:30:57;;;;;;;1.20;0.93;;;20.20;99.90;;;;;;4995357;28;20249;-79
2021/08/07 07:33:24;;;;;;;1.10;0.80;;;20.20;99.90;;;;;;4995219;28;20204;-78
2021/08/07 07:35:51;;;;;;;1.23;0.80;;;20.20;99.90;;;;;;4995520;28;20205;-79
2021/08/07 07:38:17;;;;;;;1.40;1.10;;;20.40;99.90;;;;;;4991675;28;20202;-78
2021/08/07 07:40:44;;;;;;;2.00;1.00;;;20.70;99.90;;;;;;4991254;28;20205;-78
2021/08/07 07:43:13;;;;;;;1.95;0.82;;;20.80;99.90;;;;;;4990184;28;20202;-79
2021/08/07 07:45:40;;;;;;;1.20;0.90;;;20.90;99.90;;;;;;4995117;28;20252;-78
2021/08/07 07:48:07;;;;;;;1.20;0.90;;;20.90;99.90;;;;;;4995230;28;20276;-78
2021/08/07 07:50:33;;;;;;;1.98;0.95;;;21.00;99.90;;;;;;4995237;28;20193;-78
2021/08/07 07:53:00;;;;;;;2.97;1.15;;;21.00;99.90;;;;;;4994799;28;20284;-78
2021/08/07 07:55:27;;;;;;;1.88;1.20;;;21.10;99.90;;;;;;4994930;28;20530;-76
2021/08/07 07:57:58;;;;;;;1.10;0.98;;;21.10;99.90;;;;;;4992277;28;20585;-78
2021/08/07 08:00:26;;;;;;;2.35;1.00;;;21.00;99.90;;;;;;4995273;28;20273;-78
2021/08/07 08:02:53;;;;;;;2.40;1.20;;;21.00;99.90;;;;;;4995179;28;20193;-78
2021/08/07 08:05:19;;;;;;;1.30;0.85;;;20.90;99.90;;;;;;4995129;28;20217;-78
2021/08/07 08:07:46;;;;;;;3.95;0.90;;;20.80;99.90;;;;;;4995402;28;20197;-79
2021/08/07 08:10:13;;;;;;;3.97;1.10;;;20.70;99.90;;;;;;4994534;28;20247;-79
2021/08/07 08:12:40;;;;;;;1.83;1.02;;;20.60;99.90;;;;;;4994393;28;20276;-81
2021/08/07 08:15:08;;;;;;;7.90;2.05;;;20.60;99.90;;;;;;4993584;28;20206;-81
2021/08/07 08:17:36;;;;;;;1.10;0.90;;;20.60;99.90;;;;;;4986496;28;20257;-78
2021/08/07 08:20:04;;;;;;;1.30;1.00;;;20.60;99.90;;;;;;4990937;28;20214;-77
2021/08/07 08:22:30;;;;;;;1.75;0.90;;;20.50;99.90;;;;;;4992512;28;20209;-77
2021/08/07 08:24:57;;;;;;;1.40;1.10;;;20.50;99.90;;;;;;4993773;28;20614;-78
2021/08/07 08:27:24;;;;;;;1.30;1.10;;;20.60;99.90;;;;;;4992308;28;20193;-81
2021/08/07 08:29:51;;;;;;;1.17;0.90;;;20.60;99.90;;;;;;4992204;28;20205;-82
2021/08/07 08:32:17;;;;;;;1.40;1.20;;;20.50;99.90;;;;;;4994477;28;20197;-80
2021/08/07 08:34:45;;;;;;;1.25;0.90;;;20.50;99.90;;;;;;4993751;28;20196;-76
2021/08/07 08:37:12;;;;;;;1.30;1.00;;;20.50;99.90;;;;;;4994408;28;20197;-76
2021/08/07 08:39:39;;;;;;;1.85;1.05;;;20.50;99.90;;;;;;4994746;28;20657;-77
2021/08/07 08:42:07;;;;;;;2.55;1.20;;;20.50;99.90;;;;;;4992751;28;20654;-76
2021/08/07 08:44:34;;;;;;;1.98;1.65;;;20.50;99.90;;;;;;4993006;28;20225;-76
2021/08/07 08:47:01;;;;;;;1.40;1.02;;;20.60;99.90;;;;;;4994717;28;20204;-76
2021/08/07 08:49:29;;;;;;;2.67;1.20;;;20.70;99.90;;;;;;4984159;28;20202;-78
2021/08/07 08:52:01;;;;;;;1.17;1.08;;;20.80;99.90;;;;;;4994991;28;20224;-77
2021/08/07 08:54:29;;;;;;;1.30;1.10;;;20.90;99.90;;;;;;4994647;28;20252;-77
2021/08/07 08:56:56;;;;;;;1.35;0.90;;;21.10;99.90;;;;;;4993850;28;20198;-78
2021/08/07 08:59:23;;;;;;;1.77;0.98;;;21.30;99.90;;;;;;4984520;28;20205;-76
2021/08/07 09:01:51;;;;;;;1.40;0.90;;;21.50;99.90;;;;;;4984997;28;20205;-78
2021/08/07 09:04:18;;;;;;;2.25;1.10;;;21.70;99.90;;;;;;4993767;28;20251;-78
2021/08/07 09:06:45;;;;;;;1.33;0.82;;;21.80;99.90;;;;;;4993471;28;20201;-78
2021/08/07 09:09:14;;;;;;;1.00;0.80;;;22.00;99.90;;;;;;4992476;28;20198;-78
2021/08/07 09:11:48;;;;;;;2.58;1.00;;;22.10;99.90;;;;;;4994441;28;20197;-79
2021/08/07 09:14:17;;;;;;;2.30;1.10;;;22.10;99.90;;;;;;4993517;28;20265;-78
2021/08/07 09:17:08;;;;;;;1.93;1.10;;;22.10;99.90;;;;;;4993643;28;20444;-79
2021/08/07 09:19:58;;;;;;;2.15;1.42;;;22.10;99.90;;;;;;4993684;28;20437;-78
2021/08/07 09:22:27;;;;;;;3.07;0.83;;;22.10;99.90;;;;;;4993892;28;20237;-79
2021/08/07 09:25:17;;;;;;;1.13;0.70;;;22.10;99.90;;;;;;4984164;28;20480;-79
2021/08/07 09:27:46;;;;;;;3.57;1.10;;;22.20;99.90;;;;;;4987502;28;20515;-79
2021/08/07 09:30:30;;;;;;;2.70;1.00;;;22.30;99.90;;;;;;4993711;28;20437;-79
2021/08/07 09:32:58;;;;;;;1.23;1.00;;;22.40;99.90;;;;;;4994100;28;20436;-78
2021/08/07 09:35:26;;;;;;;1.67;1.03;;;22.50;99.90;;;;;;4994124;28;20444;-78
2021/08/07 09:38:11;;;;;;;1.23;1.00;;;22.50;99.90;;;;;;4993697;28;20835;-79
2021/08/07 09:40:41;;;;;;;2.03;1.10;;;22.60;99.90;;;;;;4989222;28;20432;-79
2021/08/07 09:43:08;;;;;;;1.20;0.93;;;22.70;99.90;;;;;;4985827;28;20682;-79
2021/08/07 09:45:35;;;;;;;1.63;1.00;;;22.70;99.90;;;;;;4992156;28;20484;-79
2021/08/07 09:48:05;;;;;;;1.93;1.00;;;22.70;99.90;;;;;;4992004;28;20445;-79
2021/08/07 09:50:33;;;;;;;2.60;1.13;;;22.60;99.90;;;;;;4993456;28;20461;-78
2021/08/07 09:53:02;;;;;;;1.73;1.23;;;22.60;99.90;;;;;;4992886;28;20543;-77
2021/08/07 09:55:29;;;;;;;1.97;1.00;;;22.50;99.90;;;;;;4992649;28;20445;-78
2021/08/07 09:58:05;;;;;;;1.30;1.07;;;22.40;99.90;;;;;;4993382;28;20483;-79
2021/08/07 10:00:40;;;;;;;1.60;1.20;;;22.40;99.90;;;;;;4993022;28;20447;-79
2021/08/07 10:03:18;;;;;;;1.63;0.93;;;22.40;99.90;;;;;;4988855;28;20440;-78
2021/08/07 10:05:45;;;;;;;1.23;0.90;;;22.50;99.90;;;;;;4992193;28;20487;-78
2021/08/07 10:08:12;;;;;;;2.13;1.00;;;22.50;99.90;;;;;;4988504;28;20450;-77
2021/08/07 10:10:40;;;;;;;2.07;1.40;;;22.50;99.90;;;;;;4992582;28;20529;-76
2021/08/07 10:13:09;;;;;;;2.47;1.33;;;22.50;99.90;;;;;;4993300;28;20460;-78
2021/08/07 10:15:38;;;;;;;2.60;1.10;;;22.60;99.90;;;;;;4992393;28;20444;-78
2021/08/07 10:18:08;;;;;;;2.07;1.00;;;22.50;99.90;;;;;;4992739;28;20448;-78
2021/08/07 10:20:37;;;;;;;2.30;1.13;;;22.50;99.90;;;;;;4990963;28;20448;-78
2021/08/07 10:23:05;;;;;;;2.40;1.40;;;22.40;99.90;;;;;;4991130;28;20449;-79
2021/08/07 10:25:34;;;;;;;2.40;1.10;;;22.40;99.90;;;;;;4992485;28;20480;-78
2021/08/07 10:28:04;;;;;;;1.97;1.00;;;22.30;99.90;;;;;;4993020;28;20559;-80
2021/08/07 10:30:34;;;;;;;1.50;1.00;;;22.40;99.90;;;;;;4992375;28;20840;-78
2021/08/07 10:33:02;;;;;;;1.60;0.90;;;22.30;99.90;;;;;;4988595;28;20498;-91
2021/08/07 10:35:30;;;;;;;1.97;1.00;;;22.40;99.90;;;;;;4991713;28;20483;-76
2021/08/07 10:37:57;;;;;;;5.50;1.40;;;22.20;99.90;;;;;;4992067;28;20449;-79
2021/08/07 10:40:25;;;;;;;2.03;1.50;;;22.20;99.90;;;;;;4994930;28;20452;-78
2021/08/07 10:42:53;;;;;;;2.40;1.40;;;22.20;99.90;;;;;;4992738;28;20216;-79
2021/08/07 10:45:21;;;;;;;1.07;0.80;;;22.20;99.90;;;;;;4992269;28;20477;-86
2021/08/07 10:47:51;;;;;;;2.20;1.13;;;22.20;99.90;;;;;;4991749;28;20453;-78
2021/08/07 10:50:37;;;;;;;1.70;0.93;;;22.20;99.90;;;;;;4991838;28;20456;-84
2021/08/07 10:53:24;;;;;;;2.83;0.90;;;22.20;99.90;;;;;;4990834;28;20487;-85
2021/08/07 10:55:52;;;;;;;2.33;1.20;;;22.20;99.90;;;;;;4991592;28;20452;-85
2021/08/07 10:58:39;;;;;;;2.80;1.00;;;22.20;99.90;;;;;;4993223;28;20440;-77
2021/08/07 11:01:31;;;;;;;1.13;0.80;;;22.20;99.90;;;;;;4992461;28;20433;-77
2021/08/07 11:04:14;;;;;;;2.67;1.10;;;22.20;99.90;;;;;;4984503;28;20640;-87
2021/08/07 11:06:53;;;;;;;1.17;0.95;;;22.20;99.90;;;;;;4993090;28;20476;-77
2021/08/07 11:09:22;;;;;;;1.40;1.10;;;22.20;99.90;;;;;;4992823;28;20225;-83
2021/08/07 11:11:50;;;;;;;1.10;1.00;;;22.30;99.90;;;;;;4992709;28;20793;-79
2021/08/07 11:14:43;;;;;;;1.00;0.83;;;22.30;99.90;;;;;;4992172;28;20471;-78
2021/08/07 11:17:33;;;;;;;1.73;1.00;;;22.30;99.90;;;;;;4992271;28;20449;-78
2021/08/07 11:20:05;;;;;;;8.00;0.90;;;22.40;99.90;;;;;;4991754;28;20469;-78
2021/08/07 11:23:08;;;;;;;1.87;1.10;;;22.40;99.90;;;;;;4993076;28;20463;-78
2021/08/07 11:26:04;;;;;;;2.03;1.33;;;22.40;99.90;;;;;;4992463;28;20524;-78
2021/08/07 11:28:32;;;;;;;1.10;1.00;;;22.40;99.90;;;;;;4993015;28;20437;-79
2021/08/07 11:31:20;;;;;;;3.27;1.20;;;22.50;99.90;;;;;;4993089;28;20503;-78
2021/08/07 11:33:47;;;;;;;2.07;1.07;;;22.50;99.90;;;;;;4991933;28;20440;-82
2021/08/07 11:36:18;;;;;;;2.63;1.20;;;22.60;99.90;;;;;;4992844;28;20515;-78
2021/08/07 11:39:05;;;;;;;2.30;1.40;;;22.60;99.90;;;;;;4998765;28;20444;-79
2021/08/07 11:41:34;;;;;;;2.77;1.50;;;22.60;99.90;;;;;;4983507;28;20428;-79
2021/08/07 11:44:02;;;;;;;2.73;1.20;;;22.60;99.90;;;;;;4991965;28;20464;-79
2021/08/07 11:46:40;;;;;;;3.10;0.87;;;22.70;99.90;;;;;;4992730;28;20512;-79
2021/08/07 11:49:07;;;;;;;1.93;1.00;;;22.70;99.90;;;;;;4984319;28;20960;-78
2021/08/07 11:51:36;;;;;;;1.57;1.10;;;22.70;99.90;;;;;;4995109;28;20444;-81
2021/08/07 11:54:03;;;;;;;2.70;0.83;;;22.70;99.90;;;;;;4993044;28;20480;-82
2021/08/07 11:56:35;;;;;;;2.00;1.00;;;22.70;99.90;;;;;;4994370;28;20453;-80
2021/08/07 11:59:01;;;;;;;2.43;1.10;;;22.70;99.90;;;;;;4995692;28;20436;-81
2021/08/07 12:01:30;;;;;;;1.50;1.20;;;22.70;99.90;;;;;;4993070;28;20888;-81
2021/08/07 12:03:57;;;;;;;1.40;1.00;;;22.60;99.90;;;;;;4994637;28;20449;-77
2021/08/07 12:06:29;;;;;;;4.30;1.10;;;22.60;99.90;;;;;;4996076;28;20487;-86
2021/08/07 12:08:57;;;;;;;1.93;1.00;;;22.60;99.90;;;;;;4994379;28;20441;-80
2021/08/07 12:11:24;;;;;;;2.87;1.20;;;22.60;99.90;;;;;;4995343;28;20460;-84
2021/08/07 12:13:53;;;;;;;1.27;0.97;;;22.60;99.90;;;;;;4995714;28;20448;-79
2021/08/07 12:16:21;;;;;;;2.30;0.93;;;22.60;99.90;;;;;;4995562;28;20781;-79
2021/08/07 12:18:51;;;;;;;2.27;1.00;;;22.70;99.90;;;;;;4995584;28;20448;-80
2021/08/07 12:21:30;;;;;;;1.47;1.10;;;22.70;99.90;;;;;;4992552;28;20855;-80
2021/08/07 12:24:01;;;;;;;3.13;1.07;;;22.70;99.90;;;;;;4992072;28;20448;-82
2021/08/07 12:26:30;;;;;;;2.47;1.07;;;22.70;99.90;;;;;;4993787;28;20472;-76
2021/08/07 12:28:59;;;;;;;2.03;0.83;;;22.70;99.90;;;;;;4993649;28;20471;-80
2021/08/07 12:31:38;;;;;;;2.07;1.00;;;22.70;99.90;;;;;;4991607;28;20534;-80
2021/08/07 12:34:12;;;;;;;1.37;1.20;;;22.70;99.90;;;;;;4994819;28;20459;-77
2021/08/07 12:36:38;;;;;;;1.20;1.00;;;22.80;99.90;;;;;;4993914;28;20857;-84
2021/08/07 12:39:06;;;;;;;1.40;0.90;;;22.80;99.90;;;;;;4998996;28;20459;-77
2021/08/07 12:41:35;;;;;;;2.53;1.40;;;22.70;99.90;;;;;;4992663;28;20456;-76
2021/08/07 12:44:02;;;;;;;2.20;1.47;;;22.80;99.90;;;;;;4993480;28;20924;-84
2021/08/07 12:46:29;;;;;;;1.97;1.30;;;22.80;99.90;;;;;;4994566;28;20487;-80
2021/08/07 12:48:56;;;;;;;1.83;1.10;;;22.80;99.90;;;;;;4989454;28;20464;-79
2021/08/07 12:51:26;;;;;;;3.63;1.10;;;22.90;99.90;;;;;;4993686;28;20921;-77
2021/08/07 12:53:54;;;;;;;1.17;1.07;;;22.80;99.90;;;;;;4993516;28;20975;-79
2021/08/07 12:56:23;;;;;;;1.70;1.17;;;22.90;99.90;;;;;;4992606;28;20944;-80